createdAt,value
2019-03-19T00:00:20.730Z,29.97
2019-03-19T00:02:49.441Z,21.13
2019-03-19T00:05:18.299Z,15.27
2019-03-19T00:07:47.168Z,18.23
2019-03-19T00:10:15.884Z,18.43
2019-03-19T00:12:44.526Z,19.55
2019-03-19T00:15:13.587Z,21.82
2019-03-19T00:17:42.207Z,28.00
2019-03-19T00:20:11.075Z,19.30
2019-03-19T00:22:39.696Z,18.90
2019-03-19T00:25:08.459Z,20.00
2019-03-19T00:27:37.091Z,20.68
2019-03-19T00:30:06.976Z,21.93
2019-03-19T00:32:35.599Z,17.67
2019-03-19T00:35:04.508Z,25.13
2019-03-19T00:37:33.132Z,24.43
2019-03-19T00:40:01.757Z,39.47
2019-03-19T00:42:30.383Z,18.47
2019-03-19T00:44:59.021Z,26.17
2019-03-19T00:47:27.646Z,31.17
2019-03-19T00:49:56.292Z,30.10
2019-03-19T00:52:25.163Z,35.95
2019-03-19T00:54:53.811Z,19.63
2019-03-19T00:57:23.415Z,27.57
2019-03-19T00:59:52.044Z,37.33
2019-03-19T01:02:20.668Z,34.20
2019-03-19T01:04:49.372Z,22.47
2019-03-19T01:07:17.995Z,16.90
2019-03-19T01:09:46.623Z,19.17
2019-03-19T01:12:15.247Z,16.77
2019-03-19T01:14:43.900Z,34.90
2019-03-19T01:17:12.534Z,23.77
2019-03-19T01:19:41.184Z,29.60
2019-03-19T01:22:09.801Z,22.73
2019-03-19T01:24:38.438Z,21.90
2019-03-19T01:27:07.065Z,29.23
2019-03-19T01:29:35.736Z,23.83
2019-03-19T01:32:04.423Z,31.10
2019-03-19T01:34:33.056Z,16.50
2019-03-19T01:37:01.912Z,25.53
2019-03-19T01:39:30.781Z,25.03
2019-03-19T01:41:59.391Z,29.40
2019-03-19T01:44:28.032Z,21.55
2019-03-19T01:46:56.884Z,29.63
2019-03-19T01:49:25.527Z,38.13
2019-03-19T01:51:54.128Z,25.03
2019-03-19T01:54:22.768Z,24.73
2019-03-19T01:56:51.422Z,29.33
2019-03-19T01:59:20.044Z,19.83
2019-03-19T02:01:48.751Z,25.10
2019-03-19T02:04:17.387Z,24.50
2019-03-19T02:06:46.003Z,32.10
2019-03-19T02:09:14.612Z,21.77
2019-03-19T02:11:43.260Z,27.47
2019-03-19T02:14:11.863Z,43.17
2019-03-19T02:16:40.494Z,25.13
2019-03-19T02:19:09.097Z,28.77
2019-03-19T02:21:37.782Z,31.47
2019-03-19T02:24:06.403Z,35.03
2019-03-19T02:26:35.020Z,29.65
2019-03-19T02:29:03.665Z,31.43
2019-03-19T02:31:32.369Z,29.70
2019-03-19T02:34:00.980Z,26.23
2019-03-19T02:36:29.629Z,32.73
2019-03-19T02:38:58.473Z,24.80
2019-03-19T02:41:27.113Z,29.67
2019-03-19T02:43:55.727Z,26.30
2019-03-19T02:46:24.439Z,32.07
2019-03-19T02:48:53.354Z,31.13
2019-03-19T02:51:21.975Z,23.27
2019-03-19T02:53:50.621Z,29.10
2019-03-19T02:56:31.952Z,32.87
2019-03-19T02:58:49.640Z,19.23
2019-03-19T03:01:18.287Z,17.80
2019-03-19T03:03:46.917Z,26.87
2019-03-19T03:06:15.582Z,34.88
2019-03-19T03:08:44.188Z,26.70
2019-03-19T03:11:12.836Z,29.72
2019-03-19T03:13:41.468Z,29.98
2019-03-19T03:16:10.167Z,35.30
2019-03-19T03:18:39.265Z,27.75
2019-03-19T03:21:07.913Z,25.77
2019-03-19T03:23:36.537Z,24.85
2019-03-19T03:26:05.400Z,23.85
2019-03-19T03:28:34.054Z,33.38
2019-03-19T03:31:02.713Z,38.42
2019-03-19T03:33:31.393Z,26.30
2019-03-19T03:36:00.028Z,29.63
2019-03-19T03:38:28.654Z,24.90
2019-03-19T03:40:57.289Z,34.58
2019-03-19T03:43:26.135Z,34.05
2019-03-19T03:45:54.771Z,24.32
2019-03-19T03:48:23.397Z,31.07
2019-03-19T03:50:52.071Z,30.35
2019-03-19T03:53:20.718Z,36.65
2019-03-19T03:55:49.365Z,22.60
2019-03-19T03:58:18.205Z,28.85
2019-03-19T04:00:46.857Z,27.70
2019-03-19T04:03:15.511Z,31.20
2019-03-19T04:05:44.229Z,33.13
2019-03-19T04:08:12.896Z,19.67
2019-03-19T04:10:41.559Z,35.33
2019-03-19T04:13:10.195Z,28.67
2019-03-19T04:15:38.815Z,40.20
2019-03-19T04:18:07.545Z,24.87
2019-03-19T04:20:36.199Z,37.38
2019-03-19T04:23:05.001Z,31.95
2019-03-19T04:25:33.634Z,35.48
2019-03-19T04:28:02.272Z,23.73
2019-03-19T04:30:31.634Z,19.73
2019-03-19T04:33:00.301Z,24.77
2019-03-19T04:35:28.971Z,35.05
2019-03-19T04:37:57.647Z,28.75
2019-03-19T04:40:26.303Z,36.05
2019-03-19T04:42:54.964Z,31.70
2019-03-19T04:45:23.621Z,33.92
2019-03-19T04:47:52.288Z,31.75
2019-03-19T04:50:20.913Z,28.07
2019-03-19T04:52:49.608Z,29.35
2019-03-19T04:55:18.265Z,25.68
2019-03-19T04:57:47.144Z,33.83
2019-03-19T05:00:16.140Z,34.08
2019-03-19T05:02:44.878Z,18.70
2019-03-19T05:05:13.657Z,27.70
2019-03-19T05:07:42.391Z,26.12
2019-03-19T05:10:11.895Z,21.27
2019-03-19T05:12:40.516Z,20.55
2019-03-19T05:15:09.458Z,29.30
2019-03-19T05:17:38.105Z,29.40
2019-03-19T05:20:07.588Z,21.17
2019-03-19T05:22:36.251Z,36.08
2019-03-19T05:25:05.594Z,16.73
2019-03-19T05:27:37.764Z,28.95
2019-03-19T05:30:05.467Z,25.65
2019-03-19T05:32:34.131Z,29.90
2019-03-19T05:35:02.850Z,29.20
2019-03-19T05:37:31.527Z,29.30
2019-03-19T05:40:00.336Z,26.10
2019-03-19T05:42:29.061Z,34.50
2019-03-19T05:44:57.934Z,40.97
2019-03-19T05:47:36.799Z,27.05
2019-03-19T05:49:57.684Z,21.37
2019-03-19T05:52:26.345Z,35.13
2019-03-19T05:54:55.227Z,27.67
2019-03-19T05:57:23.894Z,30.55
2019-03-19T05:59:52.523Z,24.80
2019-03-19T06:02:21.189Z,48.60
2019-03-19T06:04:49.941Z,41.30
2019-03-19T06:07:18.609Z,38.80
2019-03-19T06:09:47.500Z,30.95
2019-03-19T06:12:16.169Z,32.40
2019-03-19T06:14:44.840Z,40.50
2019-03-19T06:17:13.556Z,32.48
2019-03-19T06:19:42.204Z,22.80
2019-03-19T06:22:10.885Z,26.00
2019-03-19T06:24:39.531Z,25.17
2019-03-19T06:27:08.416Z,37.42
2019-03-19T06:29:37.126Z,20.82
2019-03-19T06:32:05.823Z,30.48
2019-03-19T06:34:34.496Z,23.90
2019-03-19T06:37:03.404Z,20.75
2019-03-19T06:39:32.054Z,41.63
2019-03-19T06:42:00.795Z,27.70
2019-03-19T06:44:29.473Z,22.70
2019-03-19T06:46:58.365Z,21.20
2019-03-19T06:49:27.003Z,29.23
2019-03-19T06:51:55.687Z,28.52
2019-03-19T06:54:24.349Z,25.88
2019-03-19T06:56:53.058Z,32.03
2019-03-19T06:59:21.732Z,46.13
2019-03-19T07:01:50.482Z,24.33
2019-03-19T07:04:19.150Z,42.45
2019-03-19T07:06:47.815Z,31.15
2019-03-19T07:09:16.464Z,18.50
2019-03-19T07:11:45.355Z,18.13
2019-03-19T07:14:14.007Z,36.37
2019-03-19T07:16:42.885Z,21.17
2019-03-19T07:19:12.393Z,42.03
2019-03-19T07:21:41.021Z,22.73
2019-03-19T07:24:09.716Z,28.30
2019-03-19T07:26:38.357Z,28.40
2019-03-19T07:29:07.031Z,31.10
2019-03-19T07:31:35.712Z,28.03
2019-03-19T07:34:04.374Z,45.43
2019-03-19T07:36:33.016Z,34.00
2019-03-19T07:39:01.729Z,30.13
2019-03-19T07:41:30.432Z,20.83
2019-03-19T07:43:59.093Z,32.17
2019-03-19T07:46:27.748Z,32.70
2019-03-19T07:48:56.415Z,34.00
2019-03-19T07:51:25.074Z,28.57
2019-03-19T07:53:53.927Z,28.03
2019-03-19T07:56:22.608Z,29.37
2019-03-19T07:58:51.278Z,40.13
2019-03-19T08:01:19.889Z,23.03
2019-03-19T08:03:49.000Z,24.90
2019-03-19T08:06:17.653Z,23.53
2019-03-19T08:08:46.620Z,20.67
2019-03-19T08:11:16.751Z,26.10
2019-03-19T08:13:45.606Z,30.23
2019-03-19T08:16:14.233Z,26.77
2019-03-19T08:18:43.132Z,30.10
2019-03-19T08:21:11.764Z,27.37
2019-03-19T08:23:40.470Z,32.53
2019-03-19T08:26:09.170Z,29.87
2019-03-19T08:28:37.854Z,26.87
2019-03-19T08:31:06.486Z,28.40
2019-03-19T08:33:35.125Z,28.30
2019-03-19T08:36:09.386Z,22.77
2019-03-19T08:38:34.600Z,27.27
2019-03-19T08:41:03.337Z,36.03
2019-03-19T08:43:32.000Z,30.90
2019-03-19T08:46:00.628Z,25.23
2019-03-19T08:48:29.267Z,32.30
2019-03-19T08:50:57.904Z,27.43
2019-03-19T08:53:26.560Z,25.23
2019-03-19T08:55:55.184Z,24.77
2019-03-19T08:58:23.811Z,20.60
2019-03-19T09:00:52.470Z,15.77
2019-03-19T09:03:21.119Z,25.70
2019-03-19T09:05:50.225Z,25.33
2019-03-19T09:08:19.119Z,16.90
2019-03-19T09:10:47.771Z,24.27
2019-03-19T09:13:16.448Z,27.83
2019-03-19T09:15:45.105Z,19.07
2019-03-19T09:18:15.988Z,34.27
2019-03-19T09:20:44.353Z,16.60
2019-03-19T09:23:12.997Z,27.50
2019-03-19T09:25:41.656Z,31.33
2019-03-19T09:28:10.308Z,31.40
2019-03-19T09:30:39.013Z,27.10
2019-03-19T09:33:07.664Z,29.53
2019-03-19T09:35:36.318Z,31.30
2019-03-19T09:38:05.101Z,25.07
2019-03-19T09:40:33.761Z,30.40
2019-03-19T09:43:02.478Z,25.60
2019-03-19T09:45:31.205Z,20.13
2019-03-19T09:47:59.836Z,18.47
2019-03-19T09:50:28.531Z,27.37
2019-03-19T09:52:57.169Z,21.10
2019-03-19T09:55:25.959Z,20.33
2019-03-19T09:57:54.660Z,26.77
2019-03-19T10:00:23.746Z,18.87
2019-03-19T10:02:52.459Z,22.13
2019-03-19T10:05:21.241Z,18.37
2019-03-19T10:07:49.889Z,15.10
2019-03-19T10:10:18.588Z,13.50
2019-03-19T10:12:47.200Z,12.47
2019-03-19T10:15:16.282Z,13.10
2019-03-19T10:17:45.134Z,17.57
2019-03-19T10:20:14.239Z,13.40
2019-03-19T10:22:42.932Z,18.67
2019-03-19T10:25:11.692Z,14.40
2019-03-19T10:27:40.300Z,13.50
2019-03-19T10:30:19.952Z,12.60
2019-03-19T10:32:48.811Z,20.27
2019-03-19T10:35:17.505Z,14.83
2019-03-19T10:37:46.268Z,18.57
2019-03-19T10:40:15.064Z,14.37
2019-03-19T10:42:43.693Z,24.50
2019-03-19T10:45:12.687Z,25.20
2019-03-19T10:47:41.545Z,11.67
2019-03-19T10:50:13.860Z,14.70
2019-03-19T10:52:42.565Z,17.00
2019-03-19T10:55:11.338Z,17.77
2019-03-19T10:57:39.980Z,18.87
2019-03-19T11:00:17.168Z,9.80
2019-03-19T11:02:45.855Z,10.23
2019-03-19T11:05:14.586Z,10.73
2019-03-19T11:07:43.516Z,15.80
2019-03-19T11:10:12.352Z,13.83
2019-03-19T11:12:41.004Z,13.93
2019-03-19T11:15:11.692Z,9.53
2019-03-19T11:17:40.502Z,7.80
2019-03-19T11:20:10.335Z,15.30
2019-03-19T11:22:39.076Z,9.40
2019-03-19T11:25:09.420Z,22.00
2019-03-19T11:27:38.125Z,19.00
2019-03-19T11:30:09.696Z,12.33
2019-03-19T11:32:38.721Z,9.17
2019-03-19T11:35:07.984Z,12.20
2019-03-19T11:37:36.632Z,10.77
2019-03-19T11:40:05.753Z,17.87
2019-03-19T11:42:34.411Z,15.93
2019-03-19T11:45:03.060Z,16.43
2019-03-19T11:47:31.770Z,10.30
2019-03-19T11:50:00.409Z,17.47
2019-03-19T11:52:29.084Z,10.20
2019-03-19T11:54:57.708Z,9.57
2019-03-19T11:57:26.341Z,17.77
2019-03-19T11:59:54.960Z,9.23
2019-03-19T12:02:26.144Z,9.10
2019-03-19T12:04:54.149Z,11.80
2019-03-19T12:07:22.819Z,13.50
2019-03-19T12:09:51.425Z,12.70
2019-03-19T12:12:20.285Z,12.23
2019-03-19T12:14:49.134Z,6.80
2019-03-19T12:17:17.761Z,12.13
2019-03-19T12:19:46.391Z,12.57
2019-03-19T12:22:15.024Z,18.30
2019-03-19T12:24:43.716Z,11.33
2019-03-19T12:27:12.367Z,6.00
2019-03-19T12:29:40.995Z,7.40
2019-03-19T12:32:09.637Z,9.03
2019-03-19T12:34:38.327Z,15.57
2019-03-19T12:37:06.982Z,15.10
2019-03-19T12:39:35.597Z,21.63
2019-03-19T12:42:04.373Z,10.23
2019-03-19T12:44:32.985Z,16.60
2019-03-19T12:47:01.623Z,13.93
2019-03-19T12:49:30.245Z,13.80
2019-03-19T12:51:58.863Z,9.13
2019-03-19T12:54:27.473Z,15.10
2019-03-19T12:56:56.104Z,14.63
2019-03-19T12:59:24.787Z,9.53
2019-03-19T13:01:53.400Z,5.17
2019-03-19T13:04:22.101Z,10.73
2019-03-19T13:06:50.730Z,14.53
2019-03-19T13:09:19.392Z,10.17
2019-03-19T13:11:48.020Z,10.63
2019-03-19T13:14:16.674Z,7.73
2019-03-19T13:16:45.294Z,10.13
2019-03-19T13:19:14.172Z,9.63
2019-03-19T13:21:42.788Z,7.53
2019-03-19T13:24:11.419Z,9.60
2019-03-19T13:26:40.497Z,5.30
2019-03-19T13:29:09.159Z,9.30
2019-03-19T13:31:37.768Z,7.03
2019-03-19T13:34:06.627Z,6.73
2019-03-19T13:36:35.258Z,9.87
2019-03-19T13:39:05.904Z,8.77
2019-03-19T13:41:34.524Z,7.73
2019-03-19T13:44:03.221Z,7.47
2019-03-19T13:46:31.830Z,7.77
2019-03-19T13:49:00.463Z,13.30
2019-03-19T13:51:29.071Z,7.50
2019-03-19T13:53:57.931Z,34.43
2019-03-19T13:56:26.580Z,11.77
2019-03-19T13:58:55.220Z,16.23
2019-03-19T14:01:23.851Z,10.20
2019-03-19T14:03:52.513Z,6.87
2019-03-19T14:06:21.124Z,6.67
2019-03-19T14:08:49.755Z,10.00
2019-03-19T14:11:18.608Z,10.67
2019-03-19T14:13:47.239Z,14.07
2019-03-19T14:16:15.924Z,5.87
2019-03-19T14:18:44.540Z,6.53
2019-03-19T14:21:13.170Z,10.47
2019-03-19T14:23:41.795Z,11.33
2019-03-19T14:26:10.439Z,7.47
2019-03-19T14:28:39.069Z,6.30
2019-03-19T14:31:09.155Z,6.07
2019-03-19T14:33:37.940Z,6.07
2019-03-19T14:36:06.554Z,8.50
2019-03-19T14:38:43.175Z,11.97
2019-03-19T14:41:05.852Z,6.70
2019-03-19T14:43:34.492Z,8.80
2019-03-19T14:46:03.116Z,9.27
2019-03-19T14:48:31.761Z,9.83
2019-03-19T14:51:00.376Z,6.60
2019-03-19T14:53:29.025Z,11.50
2019-03-19T14:55:57.725Z,12.27
2019-03-19T14:58:26.347Z,11.60
2019-03-19T15:00:55.195Z,9.00
2019-03-19T15:03:24.076Z,13.53
2019-03-19T15:05:52.700Z,12.23
2019-03-19T15:08:21.328Z,11.30
2019-03-19T15:10:49.948Z,13.90
2019-03-19T15:13:18.577Z,8.17
2019-03-19T15:15:47.222Z,11.37
2019-03-19T15:18:16.082Z,11.10
2019-03-19T15:20:44.704Z,8.10
2019-03-19T15:23:13.315Z,9.10
2019-03-19T15:25:41.952Z,10.03
2019-03-19T15:28:10.587Z,18.03
2019-03-19T15:30:39.351Z,17.73
2019-03-19T15:33:07.964Z,7.03
2019-03-19T15:35:36.596Z,9.77
2019-03-19T15:38:05.236Z,10.70
2019-03-19T15:40:33.863Z,12.57
2019-03-19T15:43:02.723Z,7.77
2019-03-19T15:45:31.344Z,9.37
2019-03-19T15:47:59.975Z,11.43
2019-03-19T15:50:28.632Z,9.33
2019-03-19T15:52:57.272Z,5.80
2019-03-19T15:55:25.902Z,12.63
2019-03-19T15:57:54.515Z,12.63
2019-03-19T16:00:23.244Z,12.33
2019-03-19T16:02:51.864Z,9.20
2019-03-19T16:05:20.734Z,17.20
2019-03-19T16:07:49.355Z,14.00
2019-03-19T16:10:18.093Z,10.93
2019-03-19T16:12:46.798Z,6.53
2019-03-19T16:15:15.415Z,7.77
2019-03-19T16:17:44.057Z,7.63
2019-03-19T16:20:13.701Z,10.37
2019-03-19T16:22:42.384Z,11.50
2019-03-19T16:25:11.002Z,13.83
2019-03-19T16:27:39.633Z,11.90
2019-03-19T16:30:09.395Z,10.33
2019-03-19T16:32:38.932Z,5.80
2019-03-19T16:35:07.925Z,10.03
2019-03-19T16:37:36.536Z,8.80
2019-03-19T16:40:06.700Z,7.07
2019-03-19T16:42:35.315Z,7.70
2019-03-19T16:45:04.483Z,11.50
2019-03-19T16:47:33.164Z,8.43
2019-03-19T16:50:01.821Z,12.13
2019-03-19T16:52:30.466Z,11.50
2019-03-19T16:54:59.122Z,7.70
2019-03-19T16:57:27.748Z,10.37
2019-03-19T16:59:56.420Z,13.83
2019-03-19T17:02:25.105Z,9.03
2019-03-19T17:04:53.756Z,13.70
2019-03-19T17:07:22.459Z,12.03
2019-03-19T17:09:51.359Z,9.73
2019-03-19T17:12:20.213Z,11.83
2019-03-19T17:14:49.064Z,9.03
2019-03-19T17:17:17.719Z,12.73
2019-03-19T17:19:46.360Z,13.40
2019-03-19T17:22:15.004Z,7.30
2019-03-19T17:24:43.642Z,8.50
2019-03-19T17:27:12.289Z,14.10
2019-03-19T17:29:40.931Z,14.00
2019-03-19T17:32:13.248Z,12.93
2019-03-19T17:34:39.980Z,12.33
2019-03-19T17:37:08.622Z,7.60
2019-03-19T17:39:37.468Z,17.63
2019-03-19T17:42:06.614Z,6.50
2019-03-19T17:44:35.255Z,19.77
2019-03-19T17:47:03.907Z,15.60
2019-03-19T17:49:32.555Z,10.53
2019-03-19T17:52:01.268Z,15.23
2019-03-19T17:54:29.920Z,15.80
2019-03-19T17:56:58.551Z,15.73
2019-03-19T17:59:27.447Z,13.87
2019-03-19T18:01:56.079Z,14.40
2019-03-19T18:04:24.724Z,15.77
2019-03-19T18:06:53.420Z,12.40
2019-03-19T18:09:22.120Z,19.13
2019-03-19T18:11:50.761Z,10.40
2019-03-19T18:14:19.403Z,12.93
2019-03-19T18:16:48.106Z,9.67
2019-03-19T18:19:16.779Z,14.27
2019-03-19T18:21:45.426Z,8.40
2019-03-19T18:24:14.063Z,11.87
2019-03-19T18:26:43.531Z,18.50
2019-03-19T18:29:12.240Z,12.57
2019-03-19T18:31:41.155Z,23.40
2019-03-19T18:34:10.654Z,20.10
2019-03-19T18:36:39.428Z,19.70
2019-03-19T18:39:08.568Z,15.83
2019-03-19T18:41:37.491Z,15.33
2019-03-19T18:44:06.141Z,18.80
2019-03-19T18:46:34.811Z,14.27
2019-03-19T18:49:03.452Z,17.70
2019-03-19T18:51:32.168Z,13.53
2019-03-19T18:54:00.839Z,15.43
2019-03-19T18:56:29.506Z,11.63
2019-03-19T18:58:58.129Z,19.53
2019-03-19T19:01:26.795Z,17.40
2019-03-19T19:03:55.443Z,15.53
2019-03-19T19:06:24.112Z,14.63
2019-03-19T19:08:52.781Z,15.97
2019-03-19T19:11:21.427Z,25.70
2019-03-19T19:13:50.081Z,23.50
2019-03-19T19:16:18.776Z,22.97
2019-03-19T19:18:47.432Z,18.43
2019-03-19T19:21:16.055Z,18.93
2019-03-19T19:23:44.764Z,18.10
2019-03-19T19:26:13.399Z,18.20
2019-03-19T19:28:42.072Z,15.00
2019-03-19T19:31:10.800Z,22.63
2019-03-19T19:33:39.475Z,20.10
2019-03-19T19:36:08.119Z,17.27
2019-03-19T19:38:36.767Z,16.53
2019-03-19T19:41:05.412Z,18.03
2019-03-19T19:43:34.099Z,15.57
2019-03-19T19:46:02.740Z,25.33
2019-03-19T19:48:31.394Z,16.80
2019-03-19T19:51:00.036Z,18.13
2019-03-19T19:53:28.685Z,19.70
2019-03-19T19:55:57.354Z,20.80
2019-03-19T19:58:26.104Z,15.60
2019-03-19T20:00:54.743Z,13.60
2019-03-19T20:03:23.409Z,17.73
2019-03-19T20:05:52.312Z,13.37
2019-03-19T20:08:21.024Z,16.70
2019-03-19T20:10:49.716Z,16.70
2019-03-19T20:13:18.583Z,15.67
2019-03-19T20:15:47.263Z,25.97
2019-03-19T20:18:15.909Z,20.33
2019-03-19T20:20:44.583Z,19.37
2019-03-19T20:23:13.253Z,18.30
2019-03-19T20:25:41.925Z,19.13
2019-03-19T20:28:10.560Z,16.53
2019-03-19T20:30:39.223Z,18.53
2019-03-19T20:33:07.864Z,19.03
2019-03-19T20:35:36.521Z,17.43
2019-03-19T20:38:05.487Z,20.43
2019-03-19T20:40:34.119Z,24.83
2019-03-19T20:43:02.763Z,20.07
2019-03-19T20:45:31.394Z,22.00
2019-03-19T20:48:00.053Z,16.97
2019-03-19T20:50:29.458Z,14.40
2019-03-19T20:52:58.159Z,25.37
2019-03-19T20:55:27.025Z,17.73
2019-03-19T20:57:55.663Z,21.77
2019-03-19T21:00:24.329Z,21.20
2019-03-19T21:02:52.987Z,20.83
2019-03-19T21:05:21.774Z,22.30
2019-03-19T21:07:50.473Z,15.00
2019-03-19T21:10:19.382Z,15.93
2019-03-19T21:12:48.180Z,18.33
2019-03-19T21:15:18.474Z,18.40
2019-03-19T21:17:47.581Z,21.10
2019-03-19T21:20:16.227Z,23.80
2019-03-19T21:22:44.902Z,20.57
2019-03-19T21:25:13.748Z,20.37
2019-03-19T21:27:42.416Z,17.27
2019-03-19T21:30:11.317Z,21.10
2019-03-19T21:32:40.056Z,20.97
2019-03-19T21:35:09.100Z,24.07
2019-03-19T21:37:37.813Z,28.47
2019-03-19T21:40:07.193Z,18.50
2019-03-19T21:42:35.855Z,27.33
2019-03-19T21:45:05.189Z,19.83
2019-03-19T21:47:33.871Z,25.07
2019-03-19T21:50:02.515Z,20.27
2019-03-19T21:52:31.189Z,14.43
2019-03-19T21:54:59.853Z,14.27
2019-03-19T21:57:28.526Z,18.50
2019-03-19T21:59:57.205Z,12.53
2019-03-19T22:02:25.864Z,15.47
2019-03-19T22:04:54.550Z,14.70
2019-03-19T22:07:23.475Z,20.47
2019-03-19T22:09:52.170Z,22.00
2019-03-19T22:12:20.812Z,21.23
2019-03-19T22:14:49.474Z,18.13
2019-03-19T22:17:18.177Z,14.33
2019-03-19T22:19:47.185Z,16.37
2019-03-19T22:22:15.879Z,18.93
2019-03-19T22:24:44.545Z,20.67
2019-03-19T22:27:13.196Z,22.40
2019-03-19T22:29:41.856Z,17.73
2019-03-19T22:32:10.571Z,27.00
2019-03-19T22:34:39.276Z,22.37
2019-03-19T22:37:07.947Z,28.37
2019-03-19T22:39:36.636Z,27.07
2019-03-19T22:42:05.289Z,29.00
2019-03-19T22:44:33.968Z,21.40
2019-03-19T22:47:02.725Z,22.33
2019-03-19T22:49:31.662Z,26.40
2019-03-19T22:52:00.301Z,21.80
2019-03-19T22:54:29.262Z,24.97
2019-03-19T22:56:57.936Z,26.63
2019-03-19T22:59:26.692Z,23.00
2019-03-19T23:01:55.549Z,19.57
2019-03-19T23:04:27.406Z,31.83
2019-03-19T23:06:54.738Z,25.70
2019-03-19T23:09:23.450Z,21.60
2019-03-19T23:11:52.124Z,17.07
2019-03-19T23:14:21.088Z,19.10
2019-03-19T23:16:49.723Z,24.87
2019-03-19T23:19:18.427Z,31.63
2019-03-19T23:21:47.144Z,23.90
2019-03-19T23:24:15.848Z,23.40
2019-03-19T23:26:44.467Z,25.30
2019-03-19T23:29:13.099Z,24.77
2019-03-19T23:31:41.754Z,35.50
2019-03-19T23:34:10.483Z,19.53
2019-03-19T23:36:39.136Z,20.73
2019-03-19T23:39:07.859Z,20.90
2019-03-19T23:41:36.848Z,17.50
2019-03-19T23:44:05.521Z,32.42
2019-03-19T23:46:34.176Z,20.02
2019-03-19T23:49:02.849Z,17.73
2019-03-19T23:51:31.500Z,18.20
2019-03-19T23:54:00.196Z,25.90
2019-03-19T23:56:28.945Z,35.10
2019-03-19T23:58:57.618Z,21.87
